createdAt,value
2019-04-20T00:01:58.144Z,59.00
2019-04-20T00:04:32.012Z,59.30
2019-04-20T00:07:03.934Z,59.40
2019-04-20T00:09:37.971Z,59.80
2019-04-20T00:12:15.715Z,60.20
2019-04-20T00:14:42.411Z,60.70
2019-04-20T00:17:13.661Z,60.90
2019-04-20T00:19:47.768Z,61.10
2019-04-20T00:22:24.634Z,61.20
2019-04-20T00:25:00.848Z,61.50
2019-04-20T00:27:52.596Z,62.00
2019-04-20T00:30:26.233Z,62.10
2019-04-20T00:32:50.199Z,62.20
2019-04-20T00:35:08.318Z,62.40
2019-04-20T00:37:43.473Z,62.60
2019-04-20T00:40:17.113Z,62.80
2019-04-20T00:42:57.098Z,62.80
2019-04-20T00:45:30.592Z,63.00
2019-04-20T00:48:05.982Z,63.10
2019-04-20T00:50:48.870Z,63.30
2019-04-20T00:53:19.547Z,63.60
2019-04-20T00:55:42.225Z,63.50
2019-04-20T00:58:20.057Z,63.70
2019-04-20T01:01:07.940Z,63.70
2019-04-20T01:03:33.869Z,63.90
2019-04-20T01:06:16.259Z,64.00
2019-04-20T01:08:40.225Z,64.00
2019-04-20T01:11:17.601Z,64.00
2019-04-20T01:13:50.875Z,64.00
2019-04-20T01:16:33.342Z,64.10
2019-04-20T01:18:57.128Z,64.50
2019-04-20T01:21:30.360Z,64.80
2019-04-20T01:24:03.536Z,64.90
2019-04-20T01:26:35.633Z,65.00
2019-04-20T01:29:17.314Z,65.10
2019-04-20T01:31:55.713Z,65.40
2019-04-20T01:34:32.156Z,65.70
2019-04-20T01:37:06.913Z,65.90
2019-04-20T01:39:31.915Z,66.20
2019-04-20T01:41:58.235Z,66.50
2019-04-20T01:44:47.305Z,66.60
2019-04-20T01:47:17.061Z,67.00
2019-04-20T01:49:54.725Z,67.20
2019-04-20T01:52:27.079Z,67.50
2019-04-20T01:55:22.988Z,67.90
2019-04-20T01:58:01.980Z,67.90
2019-04-20T02:00:25.370Z,68.10
2019-04-20T02:03:00.264Z,68.30
2019-04-20T02:05:32.736Z,68.90
2019-04-20T02:08:02.372Z,69.10
2019-04-20T02:10:41.649Z,69.40
2019-04-20T02:13:09.418Z,69.70
2019-04-20T02:15:47.920Z,69.90
2019-04-20T02:18:26.996Z,70.20
2019-04-20T02:21:05.115Z,70.20
2019-04-20T02:23:31.852Z,70.40
2019-04-20T02:25:52.239Z,70.70
2019-04-20T02:28:51.852Z,71.10
2019-04-20T02:31:32.660Z,71.50
2019-04-20T02:34:16.493Z,71.80
2019-04-20T02:39:31.507Z,72.10
2019-04-20T02:52:02.580Z,73.60
2019-04-20T02:57:20.555Z,74.10
2019-04-20T03:00:01.150Z,74.40
2019-04-20T03:02:04.188Z,74.80
2019-04-20T03:04:37.087Z,74.80
2019-04-20T03:07:15.241Z,75.20
2019-04-20T03:09:50.172Z,75.50
2019-04-20T03:12:34.443Z,75.80
2019-04-20T03:14:55.255Z,76.00
2019-04-20T03:17:33.900Z,76.20
2019-04-20T03:19:59.540Z,76.40
2019-04-20T03:23:08.285Z,76.70
2019-04-20T03:25:18.215Z,77.00
2019-04-20T03:28:00.979Z,77.40
2019-04-20T03:31:15.130Z,77.40
2019-04-20T03:33:28.731Z,77.50
2019-04-20T03:35:51.092Z,77.80
2019-04-20T03:38:17.212Z,78.10
2019-04-20T03:40:42.977Z,78.20
2019-04-20T03:43:01.113Z,78.30
2019-04-20T03:45:41.620Z,78.40
2019-04-20T03:48:48.315Z,78.50
2019-04-20T03:51:30.647Z,78.60
2019-04-20T03:53:59.106Z,78.60
2019-04-20T03:56:49.218Z,78.70
2019-04-20T03:59:20.727Z,79.00
2019-04-20T04:02:28.545Z,79.10
2019-04-20T04:04:38.984Z,79.10
2019-04-20T04:06:56.179Z,79.20
2019-04-20T04:09:32.968Z,79.30
2019-04-20T04:12:40.358Z,79.50
2019-04-20T04:15:10.642Z,79.70
2019-04-20T04:17:45.592Z,79.70
2019-04-20T04:20:18.105Z,79.90
2019-04-20T04:23:08.337Z,80.10
2019-04-20T04:25:33.696Z,80.30
2019-04-20T04:28:12.895Z,80.50
2019-04-20T04:30:43.070Z,80.60
2019-04-20T04:35:55.300Z,80.70
2019-04-20T04:38:32.734Z,80.90
2019-04-20T04:43:37.168Z,81.00
2019-04-20T04:45:53.382Z,81.10
2019-04-20T04:48:29.881Z,81.20
2019-04-20T04:51:01.275Z,81.30
2019-04-20T04:53:43.035Z,81.60
2019-04-20T04:56:07.281Z,81.70
2019-04-20T04:58:34.680Z,81.90
2019-04-20T05:01:11.689Z,81.90
2019-04-20T05:04:05.281Z,82.20
2019-04-20T05:06:31.674Z,82.30
2019-04-20T05:08:53.194Z,83.20
2019-04-20T05:11:21.808Z,82.50
2019-04-20T05:13:58.601Z,82.80
2019-04-20T05:16:46.389Z,82.70
2019-04-20T05:19:18.956Z,82.90
2019-04-20T05:22:01.365Z,83.00
2019-04-20T05:24:30.475Z,83.00
2019-04-20T05:27:13.253Z,83.10
2019-04-20T05:29:25.410Z,83.30
2019-04-20T05:32:03.486Z,83.40
2019-04-20T05:34:54.106Z,83.50
2019-04-20T05:37:31.241Z,83.60
2019-04-20T05:39:56.242Z,83.60
2019-04-20T05:42:31.401Z,83.50
2019-04-20T05:45:02.061Z,83.70
2019-04-20T05:47:31.557Z,83.50
2019-04-20T05:49:53.795Z,83.80
2019-04-20T05:52:35.122Z,83.70
2019-04-20T05:55:03.767Z,83.80
2019-04-20T05:57:40.161Z,83.70
2019-04-20T06:00:12.678Z,83.70
2019-04-20T06:02:36.469Z,83.80
2019-04-20T06:05:14.030Z,83.60
2019-04-20T06:07:38.438Z,83.50
2019-04-20T06:10:11.465Z,83.40
2019-04-20T06:12:53.808Z,83.20
2019-04-20T06:15:23.406Z,83.10
2019-04-20T06:18:06.918Z,83.00
2019-04-20T06:21:08.445Z,82.80
2019-04-20T06:28:46.518Z,81.70
2019-04-20T06:31:32.504Z,81.20
2019-04-20T06:36:57.168Z,80.50
2019-04-20T06:39:38.606Z,80.00
2019-04-20T06:44:53.587Z,79.00
2019-04-20T06:47:48.672Z,78.70
2019-04-20T06:50:18.586Z,78.20
2019-04-20T06:59:11.731Z,76.80
2019-04-20T08:29:33.953Z,52.70
2019-04-20T08:35:39.544Z,52.20
2019-04-20T08:41:17.025Z,51.00
2019-04-20T08:44:13.222Z,50.80
2019-04-20T08:46:47.705Z,49.80
2019-04-20T08:57:40.414Z,49.70
2019-04-20T09:00:13.237Z,49.40
2019-04-20T09:03:05.757Z,49.00
2019-04-20T09:05:47.657Z,48.60
2019-04-20T09:08:18.896Z,48.00
2019-04-20T09:11:12.745Z,48.50
2019-04-20T09:13:33.372Z,46.90
2019-04-20T09:15:58.014Z,47.10
2019-04-20T09:19:04.657Z,47.90
2019-04-20T09:21:43.980Z,47.90
2019-04-20T09:24:54.279Z,47.20
2019-04-20T09:27:20.740Z,47.40
2019-04-20T09:30:02.029Z,46.40
2019-04-20T09:32:35.449Z,46.00
2019-04-20T09:35:13.632Z,45.20
2019-04-20T09:37:54.399Z,44.60
2019-04-20T09:40:32.145Z,43.90
2019-04-20T09:43:04.485Z,44.40
2019-04-20T09:45:49.897Z,44.70
2019-04-20T09:55:00.502Z,43.70
2019-04-20T09:57:34.079Z,42.70
2019-04-20T10:00:04.322Z,42.20
2019-04-20T10:02:25.885Z,41.90
2019-04-20T10:04:51.513Z,41.80
2019-04-20T10:07:26.214Z,41.70
2019-04-20T10:09:54.139Z,41.40
2019-04-20T10:12:24.285Z,41.40
2019-04-20T10:14:57.506Z,40.00
2019-04-20T10:17:28.592Z,39.00
2019-04-20T10:19:57.735Z,40.10
2019-04-20T10:22:28.719Z,39.40
2019-04-20T10:24:58.599Z,38.50
2019-04-20T10:27:30.726Z,38.80
2019-04-20T10:30:03.790Z,39.40
2019-04-20T10:32:38.869Z,39.20
2019-04-20T10:35:04.865Z,39.00
2019-04-20T10:37:37.659Z,39.00
2019-04-20T10:40:08.384Z,38.90
2019-04-20T10:42:39.173Z,38.80
2019-04-20T10:45:10.878Z,38.20
2019-04-20T10:47:41.085Z,37.90
2019-04-20T10:50:11.494Z,37.20
2019-04-20T10:52:41.602Z,36.80
2019-04-20T10:55:12.467Z,36.00
2019-04-20T10:57:44.060Z,36.00
2019-04-20T11:00:19.691Z,35.40
2019-04-20T11:02:47.555Z,34.20
2019-04-20T11:05:17.617Z,32.90
2019-04-20T11:07:48.428Z,34.10
2019-04-20T11:10:22.788Z,33.50
2019-04-20T11:12:50.547Z,33.60
2019-04-20T11:15:20.922Z,33.80
2019-04-20T11:17:51.656Z,33.90
2019-04-20T11:20:21.549Z,32.50
2019-04-20T11:22:52.683Z,32.70
2019-04-20T11:25:24.352Z,32.80
2019-04-20T11:27:54.432Z,32.50
2019-04-20T11:30:24.322Z,33.10
2019-04-20T11:32:54.062Z,32.00
2019-04-20T11:35:30.459Z,33.00
2019-04-20T11:37:58.220Z,33.20
2019-04-20T11:40:28.826Z,33.30
2019-04-20T11:42:59.563Z,32.10
2019-04-20T11:45:30.951Z,30.00
2019-04-20T11:48:01.193Z,29.50
2019-04-20T11:50:31.621Z,30.90
2019-04-20T11:53:03.507Z,31.40
2019-04-20T11:55:34.110Z,31.60
2019-04-20T11:58:04.077Z,30.70
2019-04-20T12:00:56.235Z,30.90
2019-04-20T12:03:33.312Z,31.10
2019-04-20T12:06:02.612Z,31.10
2019-04-20T12:08:32.180Z,31.00
2019-04-20T12:11:19.720Z,30.70
2019-04-20T12:13:36.561Z,31.00
2019-04-20T12:16:07.718Z,30.90
2019-04-20T12:18:37.984Z,30.80
2019-04-20T12:21:08.565Z,30.60
2019-04-20T12:23:48.573Z,30.60
2019-04-20T12:26:18.585Z,28.70
2019-04-20T12:28:49.702Z,28.60
2019-04-20T12:31:22.626Z,29.60
2019-04-20T12:33:52.524Z,29.80
2019-04-20T12:36:22.254Z,29.80
2019-04-20T12:38:53.165Z,29.80
2019-04-20T12:41:34.417Z,29.20
2019-04-20T12:43:54.548Z,29.10
2019-04-20T12:46:25.146Z,29.00
2019-04-20T12:48:59.689Z,29.30
2019-04-20T12:51:33.903Z,30.20
2019-04-20T12:54:02.471Z,29.90
2019-04-20T12:56:32.765Z,28.40
2019-04-20T12:59:03.257Z,27.80
2019-04-20T13:01:33.346Z,28.50
2019-04-20T13:04:06.175Z,29.00
2019-04-20T13:06:37.282Z,29.50
2019-04-20T13:09:12.741Z,28.60
2019-04-20T13:11:59.451Z,28.60
2019-04-20T13:14:46.426Z,28.70
2019-04-20T13:17:16.649Z,28.70
2019-04-20T13:19:47.086Z,29.70
2019-04-20T13:22:19.027Z,29.30
2019-04-20T13:24:49.301Z,29.60
2019-04-20T13:27:19.634Z,30.00
2019-04-20T13:29:52.480Z,29.20
2019-04-20T13:32:23.266Z,29.40
2019-04-20T13:34:54.169Z,29.70
2019-04-20T13:37:24.371Z,29.30
2019-04-20T13:39:57.004Z,29.60
2019-04-20T13:42:29.786Z,30.00
2019-04-20T13:44:59.074Z,29.50
2019-04-20T13:47:28.883Z,29.70
2019-04-20T13:49:58.870Z,29.60
2019-04-20T13:52:28.842Z,29.50
2019-04-20T13:54:59.763Z,29.40
2019-04-20T13:57:44.021Z,29.50
2019-04-20T14:00:17.890Z,28.90
2019-04-20T14:02:56.380Z,29.20
2019-04-20T14:05:35.217Z,29.20
2019-04-20T14:08:09.497Z,28.80
2019-04-20T14:10:39.766Z,28.70
2019-04-20T14:13:15.129Z,29.00
2019-04-20T14:15:41.260Z,29.10
2019-04-20T14:18:11.186Z,29.30
2019-04-20T14:20:42.409Z,29.30
2019-04-20T14:23:12.798Z,29.10
2019-04-20T14:25:43.346Z,29.00
2019-04-20T14:28:15.385Z,29.10
2019-04-20T14:30:45.952Z,28.90
2019-04-20T14:33:16.885Z,29.00
2019-04-20T14:35:47.011Z,29.00
2019-04-20T14:38:18.093Z,29.20
2019-04-20T14:40:48.363Z,29.20
2019-04-20T14:43:19.376Z,28.80
2019-04-20T14:45:50.416Z,28.70
2019-04-20T14:48:20.744Z,28.90
2019-04-20T14:50:51.905Z,29.10
2019-04-20T14:53:23.127Z,29.10
2019-04-20T14:55:53.676Z,28.70
2019-04-20T14:58:42.144Z,28.70
2019-04-20T15:01:22.970Z,28.50
2019-04-20T15:04:00.145Z,27.90
2019-04-20T15:06:25.571Z,28.30
2019-04-20T15:08:56.678Z,28.60
2019-04-20T15:11:30.462Z,28.20
2019-04-20T15:14:01.165Z,28.40
2019-04-20T15:16:34.862Z,28.60
2019-04-20T15:19:07.527Z,28.70
2019-04-20T15:21:39.660Z,28.40
2019-04-20T15:24:09.626Z,28.40
2019-04-20T15:26:40.423Z,28.50
2019-04-20T15:29:10.526Z,28.60
2019-04-20T15:31:41.869Z,28.10
2019-04-20T15:34:12.908Z,28.70
2019-04-20T15:36:44.246Z,28.60
2019-04-20T15:39:14.910Z,28.90
2019-04-20T15:41:45.344Z,28.90
2019-04-20T15:44:15.395Z,28.80
2019-04-20T15:46:45.631Z,28.80
2019-04-20T15:49:15.878Z,28.40
2019-04-20T15:51:46.081Z,28.50
2019-04-20T15:54:15.924Z,29.10
2019-04-20T15:56:52.837Z,28.30
2019-04-20T15:59:20.096Z,28.70
2019-04-20T16:01:53.391Z,28.60
2019-04-20T16:04:43.123Z,29.20
2019-04-20T16:07:13.065Z,29.40
2019-04-20T16:09:44.238Z,30.10
2019-04-20T16:12:15.127Z,29.90
2019-04-20T16:14:45.801Z,29.70
2019-04-20T16:17:15.672Z,29.60
2019-04-20T16:19:54.538Z,30.60
2019-04-20T16:22:19.782Z,30.10
2019-04-20T16:24:51.664Z,30.40
2019-04-20T16:27:29.710Z,30.90
2019-04-20T16:29:59.903Z,31.70
2019-04-20T16:32:32.462Z,31.90
2019-04-20T16:35:02.737Z,32.10
2019-04-20T16:37:32.766Z,32.00
2019-04-20T16:40:04.227Z,32.10
2019-04-20T16:42:35.074Z,32.60
2019-04-20T16:45:07.374Z,32.70
2019-04-20T16:47:37.167Z,32.80
2019-04-20T16:50:08.819Z,32.60
2019-04-20T16:52:39.109Z,33.10
2019-04-20T16:55:11.205Z,33.60
2019-04-20T16:57:41.695Z,34.00
2019-04-20T17:00:13.599Z,34.00
2019-04-20T17:02:47.902Z,33.80
2019-04-20T17:05:18.938Z,33.90
2019-04-20T17:07:50.945Z,33.60
2019-04-20T17:10:23.893Z,33.40
2019-04-20T17:12:57.738Z,33.50
2019-04-20T17:15:29.658Z,33.80
2019-04-20T17:17:59.428Z,34.00
2019-04-20T17:20:30.683Z,34.20
2019-04-20T17:23:03.357Z,34.40
2019-04-20T17:25:32.319Z,34.20
2019-04-20T17:28:07.209Z,34.20
2019-04-20T17:30:57.227Z,34.40
2019-04-20T17:34:02.661Z,34.70
2019-04-20T17:36:25.273Z,35.10
2019-04-20T17:38:54.987Z,35.30
2019-04-20T17:41:46.990Z,35.40
2019-04-20T17:44:15.764Z,35.80
2019-04-20T17:46:43.861Z,35.90
2019-04-20T17:49:18.274Z,36.50
2019-04-20T17:51:59.168Z,36.40
2019-04-20T17:54:08.456Z,36.60
2019-04-20T17:56:38.702Z,36.50
2019-04-20T17:59:08.591Z,36.70
2019-04-20T18:02:10.266Z,36.70
2019-04-20T18:05:01.005Z,36.90
2019-04-20T18:07:31.507Z,36.80
2019-04-20T18:10:02.977Z,36.80
2019-04-20T18:12:23.161Z,37.10
2019-04-20T18:14:54.697Z,37.20
2019-04-20T18:17:32.406Z,37.60
2019-04-20T18:20:03.392Z,37.70
2019-04-20T18:22:34.094Z,37.80
2019-04-20T18:25:26.807Z,37.70
2019-04-20T18:27:53.179Z,37.90
2019-04-20T18:30:28.886Z,37.90
2019-04-20T18:32:47.330Z,38.10
2019-04-20T18:35:24.595Z,38.30
2019-04-20T18:38:00.940Z,38.60
2019-04-20T18:40:35.180Z,38.90
2019-04-20T18:43:06.370Z,39.20
2019-04-20T18:45:52.886Z,39.40
2019-04-20T18:48:18.767Z,39.60
2019-04-20T18:50:39.824Z,39.90
2019-04-20T18:53:14.736Z,40.40
2019-04-20T18:55:49.590Z,40.60
2019-04-20T18:58:15.164Z,40.70
2019-04-20T19:00:50.135Z,40.80
2019-04-20T19:03:30.006Z,41.00
2019-04-20T19:05:57.998Z,41.10
2019-04-20T19:08:33.928Z,41.00
2019-04-20T19:11:06.923Z,41.30
2019-04-20T19:13:36.371Z,41.10
2019-04-20T19:16:32.583Z,41.50
2019-04-20T19:19:09.893Z,41.70
2019-04-20T19:21:33.254Z,41.70
2019-04-20T19:24:10.195Z,41.90
2019-04-20T19:26:38.067Z,41.80
2019-04-20T19:29:15.737Z,42.10
2019-04-20T19:31:57.336Z,42.20
2019-04-20T19:34:26.468Z,42.30
2019-04-20T19:36:58.634Z,42.60
2019-04-20T19:39:29.962Z,42.90
2019-04-20T19:41:54.009Z,42.90
2019-04-20T19:44:28.771Z,42.90
2019-04-20T19:47:13.828Z,43.00
2019-04-20T19:49:32.417Z,42.90
2019-04-20T19:52:25.205Z,43.20
2019-04-20T19:54:46.512Z,43.30
2019-04-20T19:57:09.441Z,43.20
2019-04-20T19:59:35.673Z,43.10
2019-04-20T20:02:00.171Z,43.10
2019-04-20T20:04:41.414Z,43.00
2019-04-20T20:07:13.746Z,42.90
2019-04-20T20:09:41.876Z,43.40
2019-04-20T20:12:11.877Z,44.10
2019-04-20T20:14:44.087Z,44.40
2019-04-20T20:17:32.644Z,44.70
2019-04-20T20:20:06.745Z,45.60
2019-04-20T20:22:27.680Z,45.60
2019-04-20T20:24:47.195Z,45.40
2019-04-20T20:27:25.649Z,45.20
2019-04-20T20:30:03.804Z,45.80
2019-04-20T20:32:39.116Z,46.00
2019-04-20T20:35:02.634Z,46.00
2019-04-20T20:37:34.724Z,46.10
2019-04-20T20:40:12.945Z,45.90
2019-04-20T20:42:47.348Z,46.00
2019-04-20T20:45:14.660Z,46.20
2019-04-20T20:47:55.290Z,46.10
2019-04-20T20:50:28.470Z,46.40
2019-04-20T20:52:49.609Z,46.70
2019-04-20T20:55:24.554Z,47.00
2019-04-20T20:57:50.878Z,47.00
2019-04-20T21:00:28.271Z,47.10
2019-04-20T21:02:58.891Z,47.30
2019-04-20T21:05:21.915Z,47.50
2019-04-20T21:07:53.836Z,47.70
2019-04-20T21:10:35.609Z,47.40
2019-04-20T21:13:04.810Z,47.50
2019-04-20T21:15:32.001Z,47.40
2019-04-20T21:18:29.316Z,47.10
2019-04-20T21:20:55.168Z,47.40
2019-04-20T21:23:28.094Z,47.60
2019-04-20T21:25:54.073Z,47.90
2019-04-20T21:28:24.720Z,48.00
2019-04-20T21:30:59.897Z,48.60
2019-04-20T21:33:32.243Z,48.60
2019-04-20T21:36:02.834Z,48.80
2019-04-20T21:38:37.604Z,48.90
2019-04-20T21:41:12.369Z,49.50
2019-04-20T21:43:42.919Z,49.40
2019-04-20T21:46:14.725Z,49.40
2019-04-20T21:48:59.694Z,49.80
2019-04-20T21:51:30.352Z,50.10
2019-04-20T21:53:54.868Z,50.00
2019-04-20T21:56:23.849Z,50.10
2019-04-20T21:58:59.884Z,50.70
2019-04-20T22:01:35.789Z,50.50
2019-04-20T22:03:58.635Z,50.60
2019-04-20T22:06:30.168Z,51.10
2019-04-20T22:09:02.418Z,50.90
2019-04-20T22:11:34.085Z,50.80
2019-04-20T22:14:12.888Z,51.00
2019-04-20T22:16:41.717Z,51.00
2019-04-20T22:19:20.048Z,51.10
2019-04-20T22:21:54.356Z,51.00
2019-04-20T22:24:28.449Z,50.90
2019-04-20T22:26:54.850Z,51.10
2019-04-20T22:29:14.583Z,51.20
2019-04-20T22:31:52.232Z,51.00
2019-04-20T22:34:20.854Z,51.40
2019-04-20T22:36:50.074Z,51.40
2019-04-20T22:39:31.951Z,51.50
2019-04-20T22:42:16.477Z,51.60
2019-04-20T22:45:01.952Z,51.30
2019-04-20T22:47:35.418Z,51.40
2019-04-20T22:50:29.642Z,51.30
2019-04-20T22:52:55.305Z,51.40
2019-04-20T22:55:42.730Z,51.40
2019-04-20T22:58:02.365Z,51.70
2019-04-20T23:00:34.239Z,52.10
2019-04-20T23:03:12.597Z,52.60
2019-04-20T23:05:34.136Z,52.80
2019-04-20T23:10:57.555Z,52.70
2019-04-20T23:13:36.903Z,52.80
2019-04-20T23:16:09.152Z,53.10
2019-04-20T23:18:47.011Z,53.20
2019-04-20T23:21:19.679Z,53.40
2019-04-20T23:23:53.695Z,53.30
2019-04-20T23:26:33.499Z,53.50
2019-04-20T23:29:02.537Z,53.80
2019-04-20T23:31:46.130Z,53.60
2019-04-20T23:34:19.426Z,53.90
2019-04-20T23:36:56.763Z,53.90
2019-04-20T23:39:36.446Z,54.30
2019-04-20T23:42:08.830Z,54.40
2019-04-20T23:44:58.223Z,54.70
2019-04-20T23:47:46.659Z,55.00
2019-04-20T23:50:38.316Z,55.20
2019-04-20T23:53:10.117Z,55.20
2019-04-20T23:55:25.640Z,55.20
2019-04-20T23:58:06.535Z,55.50
